Axis, AL

1:51 AM CDT on September 02, 2014 (GMT -0500)
The Legends At Magnolia Grove | Change Station
CLOSE
Current Station
Personal Weather Station
Location: Mobile, AL
Elevation: 171 ft
Nearby Weather Stations

Elev 171 ft 30.74 °N, 88.20 °W | Updated 2 seconds ago

Clear
Clear
76.7 °F
Feels Like 77 °F
N
0.0
Wind Variable Wind from ESE
Gusts 0.0 mph

Today
High -- | Low -- °F
--% Chance of Precip.
Yesterday
High -- | Low -- °F
Precip. -- in
6:29 AM 7:14 PM
Waxing Crescent, 48% visible
Pressure 30.03 in
Visibility 10.0 miles
Clouds Clear
Heat Index 77 °F
Dew Point 75 °F
Humidity 95%
Rainfall 0.00 in
Snow Depth Not available.
UV 0 out of 12
Pollen 9.20 out of 12
Ozone Good
Flu Activity Not available.
METAR KMOB 020556Z AUTO 17005KT 10SM CLR 26/24 A3004 RMK AO2 SLP169 T02610244 10289 20261 403330233 56015

More Conditions Fewer Conditions

Pressure 30.03 in
Visibility 10.0 miles
Clouds Clear
Heat Index 77 °F
Dew Point 75 °F
Humidity 95%
Rainfall 0.00 in
Snow Depth Not available.
UV 0 out of 12
Pollen 9.20 out of 12
Ozone Good
Flu Activity Not available.
METAR KMOB 020556Z AUTO 17005KT 10SM CLR 26/24 A3004 RMK AO2 SLP169 T02610244 10289 20261 403330233 56015

More Conditions Fewer Conditions

10-Day Weather Forecast

Almanac

Astronomy

Sep. 02, 2014 Rise Set
Actual Time 6:29 AM CDT 7:14 PM CDT
Civil Twilight 6:04 AM CDT 7:38 PM CDT
Nautical Twilight 5:35 AM CDT 8:07 PM CDT
Astronomical Twilight 5:05 AM CDT 8:37 PM CDT
Moon 1:45 PM CDT No Moon Set
Length of Visible Light 13h 34m
Length of Day
12h 45m
Tomorrow will be 1m 48s shorter.
Waxing Crescent, 48% of the Moon is Illuminated
Today
Waxing Crescent
Sep 2
First Quarter
Sep 8
Full
Sep 15
Last Quarter
Sep 24
New

Today's Extremes

State Highs State Lows

Community

WunderPhotos

Upload Photos

1,749,589 photos uploaded!

WunderBlogs® & News

Nearby

Air Quality

  Air Quality AQ Index Pollutant
Yesterday Good
OZONE
Current Good
OZONE
Tuesday Good
OZONE

Snow Depth

Station Depth Elevation
No new snow has been reported.

Earthquake Activity

City Distance Mag. Time & Date
No recent earthquake activity has been reported nearby.
Minimum magnitude displayed is 2.5.

Coastal Water Temperatures

Place Temperature
Mobile State Docks, AL 87.1 °F
Coast Guard Sector Mobile, AL 88.0 °F

Nearby Weather Stations